sensor_id;sensor_type;location;lat;lon;timestamp;P1;durP1;ratioP1;P2;durP2;ratioP2
30818;SDS011;17546;42.674;23.284;2024-03-08T00:01:48;8.50;;;3.40;;
30818;SDS011;17546;42.674;23.284;2024-03-08T00:04:13;5.13;;;2.88;;
30818;SDS011;17546;42.674;23.284;2024-03-08T00:06:40;3.95;;;2.72;;
30818;SDS011;17546;42.674;23.284;2024-03-08T00:09:06;3.78;;;2.80;;
30818;SDS011;17546;42.674;23.284;2024-03-08T00:11:33;4.38;;;2.85;;
30818;SDS011;17546;42.674;23.284;2024-03-08T00:14:00;4.55;;;3.55;;
30818;SDS011;17546;42.674;23.284;2024-03-08T00:16:25;6.43;;;3.88;;
30818;SDS011;17546;42.674;23.284;2024-03-08T00:18:51;4.93;;;3.75;;
30818;SDS011;17546;42.674;23.284;2024-03-08T00:21:16;5.93;;;3.90;;
30818;SDS011;17546;42.674;23.284;2024-03-08T00:23:42;7.05;;;3.92;;
30818;SDS011;17546;42.674;23.284;2024-03-08T00:26:07;6.30;;;4.20;;
30818;SDS011;17546;42.674;23.284;2024-03-08T00:28:33;5.93;;;3.92;;
30818;SDS011;17546;42.674;23.284;2024-03-08T00:30:59;6.88;;;4.25;;
30818;SDS011;17546;42.674;23.284;2024-03-08T00:33:25;6.05;;;3.70;;
30818;SDS011;17546;42.674;23.284;2024-03-08T00:35:50;5.10;;;3.40;;
30818;SDS011;17546;42.674;23.284;2024-03-08T00:38:16;4.65;;;3.15;;
30818;SDS011;17546;42.674;23.284;2024-03-08T00:40:43;3.92;;;2.83;;
30818;SDS011;17546;42.674;23.284;2024-03-08T00:43:09;3.47;;;2.60;;
30818;SDS011;17546;42.674;23.284;2024-03-08T00:45:34;3.38;;;2.38;;
30818;SDS011;17546;42.674;23.284;2024-03-08T00:48:02;4.68;;;2.33;;
30818;SDS011;17546;42.674;23.284;2024-03-08T00:50:28;3.83;;;2.28;;
30818;SDS011;17546;42.674;23.284;2024-03-08T00:52:53;2.80;;;1.77;;
30818;SDS011;17546;42.674;23.284;2024-03-08T00:55:19;2.88;;;1.95;;
30818;SDS011;17546;42.674;23.284;2024-03-08T00:57:45;3.15;;;1.95;;
30818;SDS011;17546;42.674;23.284;2024-03-08T01:00:10;2.70;;;1.80;;
30818;SDS011;17546;42.674;23.284;2024-03-08T01:02:37;2.22;;;1.50;;
30818;SDS011;17546;42.674;23.284;2024-03-08T01:05:04;2.63;;;1.75;;
30818;SDS011;17546;42.674;23.284;2024-03-08T01:07:32;2.67;;;1.90;;
30818;SDS011;17546;42.674;23.284;2024-03-08T01:09:59;2.97;;;2.05;;
30818;SDS011;17546;42.674;23.284;2024-03-08T01:12:25;7.93;;;2.50;;
30818;SDS011;17546;42.674;23.284;2024-03-08T01:14:51;3.97;;;2.60;;
30818;SDS011;17546;42.674;23.284;2024-03-08T01:17:17;3.65;;;2.60;;
30818;SDS011;17546;42.674;23.284;2024-03-08T01:19:42;4.25;;;2.60;;
30818;SDS011;17546;42.674;23.284;2024-03-08T01:22:10;8.27;;;2.28;;
30818;SDS011;17546;42.674;23.284;2024-03-08T01:24:35;2.00;;;1.77;;
30818;SDS011;17546;42.674;23.284;2024-03-08T01:27:02;3.55;;;2.00;;
30818;SDS011;17546;42.674;23.284;2024-03-08T01:29:28;3.92;;;2.22;;
30818;SDS011;17546;42.674;23.284;2024-03-08T01:31:55;5.20;;;2.25;;
30818;SDS011;17546;42.674;23.284;2024-03-08T01:34:21;3.22;;;2.20;;
30818;SDS011;17546;42.674;23.284;2024-03-08T01:36:48;4.00;;;2.53;;
30818;SDS011;17546;42.674;23.284;2024-03-08T01:39:13;3.10;;;2.45;;
30818;SDS011;17546;42.674;23.284;2024-03-08T01:41:39;3.25;;;2.45;;
30818;SDS011;17546;42.674;23.284;2024-03-08T01:44:05;2.55;;;1.92;;
30818;SDS011;17546;42.674;23.284;2024-03-08T01:46:32;4.50;;;2.60;;
30818;SDS011;17546;42.674;23.284;2024-03-08T01:48:59;4.57;;;1.98;;
30818;SDS011;17546;42.674;23.284;2024-03-08T01:51:26;3.72;;;2.10;;
30818;SDS011;17546;42.674;23.284;2024-03-08T01:53:53;3.58;;;2.10;;
30818;SDS011;17546;42.674;23.284;2024-03-08T01:56:23;2.90;;;2.10;;
30818;SDS011;17546;42.674;23.284;2024-03-08T01:58:50;3.25;;;1.90;;
30818;SDS011;17546;42.674;23.284;2024-03-08T02:01:16;4.13;;;2.15;;
30818;SDS011;17546;42.674;23.284;2024-03-08T02:03:44;2.80;;;2.20;;
30818;SDS011;17546;42.674;23.284;2024-03-08T02:06:13;2.83;;;2.20;;
30818;SDS011;17546;42.674;23.284;2024-03-08T02:08:45;2.78;;;1.88;;
30818;SDS011;17546;42.674;23.284;2024-03-08T02:11:11;2.50;;;1.90;;
30818;SDS011;17546;42.674;23.284;2024-03-08T02:13:37;3.30;;;2.10;;
30818;SDS011;17546;42.674;23.284;2024-03-08T02:16:03;3.58;;;1.80;;
30818;SDS011;17546;42.674;23.284;2024-03-08T02:18:30;3.38;;;2.22;;
30818;SDS011;17546;42.674;23.284;2024-03-08T02:21:00;2.90;;;2.10;;
30818;SDS011;17546;42.674;23.284;2024-03-08T02:23:27;3.40;;;2.22;;
30818;SDS011;17546;42.674;23.284;2024-03-08T02:25:54;4.07;;;2.40;;
30818;SDS011;17546;42.674;23.284;2024-03-08T02:28:21;3.75;;;2.75;;
30818;SDS011;17546;42.674;23.284;2024-03-08T02:30:47;5.38;;;3.03;;
30818;SDS011;17546;42.674;23.284;2024-03-08T02:33:13;6.35;;;2.78;;
30818;SDS011;17546;42.674;23.284;2024-03-08T02:35:45;4.05;;;3.03;;
30818;SDS011;17546;42.674;23.284;2024-03-08T02:38:17;3.67;;;2.90;;
30818;SDS011;17546;42.674;23.284;2024-03-08T02:40:45;2.92;;;2.38;;
30818;SDS011;17546;42.674;23.284;2024-03-08T02:43:11;2.97;;;2.50;;
30818;SDS011;17546;42.674;23.284;2024-03-08T02:45:38;6.05;;;2.55;;
30818;SDS011;17546;42.674;23.284;2024-03-08T02:48:04;5.13;;;2.88;;
30818;SDS011;17546;42.674;23.284;2024-03-08T02:50:31;3.33;;;2.20;;
30818;SDS011;17546;42.674;23.284;2024-03-08T02:52:57;2.33;;;1.60;;
30818;SDS011;17546;42.674;23.284;2024-03-08T02:55:23;2.25;;;1.65;;
30818;SDS011;17546;42.674;23.284;2024-03-08T02:57:51;3.55;;;1.42;;
30818;SDS011;17546;42.674;23.284;2024-03-08T03:00:17;3.17;;;1.30;;
30818;SDS011;17546;42.674;23.284;2024-03-08T03:02:44;2.58;;;1.52;;
30818;SDS011;17546;42.674;23.284;2024-03-08T03:05:10;5.78;;;1.30;;
30818;SDS011;17546;42.674;23.284;2024-03-08T03:07:36;3.78;;;1.20;;
30818;SDS011;17546;42.674;23.284;2024-03-08T03:10:02;1.95;;;1.33;;
30818;SDS011;17546;42.674;23.284;2024-03-08T03:12:29;2.58;;;1.70;;
30818;SDS011;17546;42.674;23.284;2024-03-08T03:14:55;4.95;;;1.50;;
30818;SDS011;17546;42.674;23.284;2024-03-08T03:17:22;1.80;;;1.30;;
30818;SDS011;17546;42.674;23.284;2024-03-08T03:19:50;3.22;;;1.60;;
30818;SDS011;17546;42.674;23.284;2024-03-08T03:22:17;3.33;;;1.90;;
30818;SDS011;17546;42.674;23.284;2024-03-08T03:24:43;3.25;;;1.85;;
30818;SDS011;17546;42.674;23.284;2024-03-08T03:27:12;4.13;;;2.38;;
30818;SDS011;17546;42.674;23.284;2024-03-08T03:29:41;3.22;;;1.90;;
30818;SDS011;17546;42.674;23.284;2024-03-08T03:32:11;4.25;;;2.20;;
30818;SDS011;17546;42.674;23.284;2024-03-08T03:34:37;2.65;;;1.65;;
30818;SDS011;17546;42.674;23.284;2024-03-08T03:37:03;2.67;;;1.48;;
30818;SDS011;17546;42.674;23.284;2024-03-08T03:39:30;2.28;;;1.42;;
30818;SDS011;17546;42.674;23.284;2024-03-08T03:41:59;1.50;;;1.27;;
30818;SDS011;17546;42.674;23.284;2024-03-08T03:44:27;2.35;;;1.40;;
30818;SDS011;17546;42.674;23.284;2024-03-08T03:46:53;3.08;;;1.02;;
30818;SDS011;17546;42.674;23.284;2024-03-08T03:49:19;1.77;;;1.30;;
30818;SDS011;17546;42.674;23.284;2024-03-08T03:51:44;5.93;;;2.15;;
30818;SDS011;17546;42.674;23.284;2024-03-08T03:54:10;1.95;;;1.30;;
30818;SDS011;17546;42.674;23.284;2024-03-08T03:56:36;1.90;;;1.30;;
30818;SDS011;17546;42.674;23.284;2024-03-08T03:59:02;3.50;;;1.52;;
30818;SDS011;17546;42.674;23.284;2024-03-08T04:01:27;1.55;;;1.30;;
30818;SDS011;17546;42.674;23.284;2024-03-08T04:03:54;2.70;;;1.42;;
30818;SDS011;17546;42.674;23.284;2024-03-08T04:06:20;2.78;;;1.40;;
30818;SDS011;17546;42.674;23.284;2024-03-08T04:08:45;4.07;;;1.40;;
30818;SDS011;17546;42.674;23.284;2024-03-08T04:11:11;2.78;;;1.40;;
30818;SDS011;17546;42.674;23.284;2024-03-08T04:13:36;2.40;;;1.60;;
30818;SDS011;17546;42.674;23.284;2024-03-08T04:16:02;2.63;;;1.23;;
30818;SDS011;17546;42.674;23.284;2024-03-08T04:18:33;1.60;;;1.20;;
30818;SDS011;17546;42.674;23.284;2024-03-08T04:21:00;1.23;;;1.10;;
30818;SDS011;17546;42.674;23.284;2024-03-08T04:23:27;2.35;;;1.30;;
30818;SDS011;17546;42.674;23.284;2024-03-08T04:25:53;2.65;;;1.48;;
30818;SDS011;17546;42.674;23.284;2024-03-08T04:28:19;2.53;;;1.30;;
30818;SDS011;17546;42.674;23.284;2024-03-08T04:30:45;4.18;;;1.60;;
30818;SDS011;17546;42.674;23.284;2024-03-08T04:33:11;2.15;;;1.33;;
30818;SDS011;17546;42.674;23.284;2024-03-08T04:35:36;1.95;;;1.40;;
30818;SDS011;17546;42.674;23.284;2024-03-08T04:38:02;2.00;;;1.40;;
30818;SDS011;17546;42.674;23.284;2024-03-08T04:40:30;2.00;;;1.27;;
30818;SDS011;17546;42.674;23.284;2024-03-08T04:42:56;4.30;;;1.80;;
30818;SDS011;17546;42.674;23.284;2024-03-08T04:45:24;4.72;;;2.05;;
30818;SDS011;17546;42.674;23.284;2024-03-08T04:47:51;3.05;;;2.13;;
30818;SDS011;17546;42.674;23.284;2024-03-08T04:50:17;3.28;;;2.17;;
30818;SDS011;17546;42.674;23.284;2024-03-08T04:52:43;3.50;;;2.25;;
30818;SDS011;17546;42.674;23.284;2024-03-08T04:55:09;5.97;;;2.53;;
30818;SDS011;17546;42.674;23.284;2024-03-08T04:57:34;4.57;;;2.38;;
30818;SDS011;17546;42.674;23.284;2024-03-08T05:00:01;3.03;;;2.20;;
30818;SDS011;17546;42.674;23.284;2024-03-08T05:02:29;5.10;;;2.75;;
30818;SDS011;17546;42.674;23.284;2024-03-08T05:04:55;8.07;;;2.75;;
30818;SDS011;17546;42.674;23.284;2024-03-08T05:07:20;5.75;;;2.70;;
30818;SDS011;17546;42.674;23.284;2024-03-08T05:09:45;6.70;;;2.97;;
30818;SDS011;17546;42.674;23.284;2024-03-08T05:12:16;4.30;;;2.95;;
30818;SDS011;17546;42.674;23.284;2024-03-08T05:14:43;6.05;;;2.85;;
30818;SDS011;17546;42.674;23.284;2024-03-08T05:17:11;5.60;;;3.30;;
30818;SDS011;17546;42.674;23.284;2024-03-08T05:19:37;5.82;;;3.28;;
30818;SDS011;17546;42.674;23.284;2024-03-08T05:22:02;6.75;;;2.95;;
30818;SDS011;17546;42.674;23.284;2024-03-08T05:24:28;5.78;;;3.67;;
30818;SDS011;17546;42.674;23.284;2024-03-08T05:26:55;4.65;;;3.55;;
30818;SDS011;17546;42.674;23.284;2024-03-08T05:29:20;5.53;;;4.07;;
30818;SDS011;17546;42.674;23.284;2024-03-08T05:34:13;8.07;;;4.35;;
30818;SDS011;17546;42.674;23.284;2024-03-08T05:36:39;8.45;;;4.75;;
30818;SDS011;17546;42.674;23.284;2024-03-08T05:39:06;10.95;;;4.97;;
30818;SDS011;17546;42.674;23.284;2024-03-08T05:41:32;7.25;;;4.50;;
30818;SDS011;17546;42.674;23.284;2024-03-08T05:43:57;11.23;;;5.63;;
30818;SDS011;17546;42.674;23.284;2024-03-08T05:46:23;8.48;;;5.38;;
30818;SDS011;17546;42.674;23.284;2024-03-08T05:48:48;9.23;;;5.68;;
30818;SDS011;17546;42.674;23.284;2024-03-08T05:51:14;9.82;;;6.22;;
30818;SDS011;17546;42.674;23.284;2024-03-08T05:53:39;16.58;;;8.13;;
30818;SDS011;17546;42.674;23.284;2024-03-08T05:56:05;23.73;;;13.45;;
30818;SDS011;17546;42.674;23.284;2024-03-08T05:58:30;11.93;;;7.57;;
30818;SDS011;17546;42.674;23.284;2024-03-08T06:00:56;13.35;;;6.70;;
30818;SDS011;17546;42.674;23.284;2024-03-08T06:03:23;12.57;;;7.20;;
30818;SDS011;17546;42.674;23.284;2024-03-08T06:05:49;12.82;;;6.45;;
30818;SDS011;17546;42.674;23.284;2024-03-08T06:08:14;11.93;;;6.95;;
30818;SDS011;17546;42.674;23.284;2024-03-08T06:10:40;12.32;;;7.05;;
30818;SDS011;17546;42.674;23.284;2024-03-08T06:13:06;11.77;;;6.28;;
30818;SDS011;17546;42.674;23.284;2024-03-08T06:15:31;10.40;;;5.50;;
30818;SDS011;17546;42.674;23.284;2024-03-08T06:17:57;10.95;;;6.15;;
30818;SDS011;17546;42.674;23.284;2024-03-08T06:20:23;11.07;;;6.60;;
30818;SDS011;17546;42.674;23.284;2024-03-08T06:22:51;12.57;;;6.82;;
30818;SDS011;17546;42.674;23.284;2024-03-08T06:25:17;10.60;;;6.47;;
30818;SDS011;17546;42.674;23.284;2024-03-08T06:27:43;12.13;;;6.50;;
30818;SDS011;17546;42.674;23.284;2024-03-08T06:30:09;12.80;;;6.80;;
30818;SDS011;17546;42.674;23.284;2024-03-08T06:32:38;12.88;;;7.00;;
30818;SDS011;17546;42.674;23.284;2024-03-08T06:35:04;11.73;;;6.28;;
30818;SDS011;17546;42.674;23.284;2024-03-08T06:37:32;12.00;;;6.45;;
30818;SDS011;17546;42.674;23.284;2024-03-08T06:40:00;11.75;;;6.38;;
30818;SDS011;17546;42.674;23.284;2024-03-08T06:42:28;11.85;;;6.70;;
30818;SDS011;17546;42.674;23.284;2024-03-08T06:44:58;14.63;;;5.88;;
30818;SDS011;17546;42.674;23.284;2024-03-08T06:47:29;11.68;;;6.50;;
30818;SDS011;17546;42.674;23.284;2024-03-08T06:49:55;11.23;;;6.03;;
30818;SDS011;17546;42.674;23.284;2024-03-08T06:52:20;9.52;;;5.95;;
30818;SDS011;17546;42.674;23.284;2024-03-08T06:54:47;15.30;;;6.38;;
30818;SDS011;17546;42.674;23.284;2024-03-08T06:57:12;12.82;;;6.35;;
30818;SDS011;17546;42.674;23.284;2024-03-08T06:59:39;17.25;;;7.25;;
30818;SDS011;17546;42.674;23.284;2024-03-08T07:02:04;16.55;;;7.18;;
30818;SDS011;17546;42.674;23.284;2024-03-08T07:04:34;12.82;;;6.90;;
30818;SDS011;17546;42.674;23.284;2024-03-08T07:07:03;15.30;;;7.07;;
30818;SDS011;17546;42.674;23.284;2024-03-08T07:09:29;13.82;;;6.85;;
30818;SDS011;17546;42.674;23.284;2024-03-08T07:11:54;9.50;;;6.20;;
30818;SDS011;17546;42.674;23.284;2024-03-08T07:14:23;12.20;;;5.80;;
30818;SDS011;17546;42.674;23.284;2024-03-08T07:16:49;9.98;;;5.90;;
30818;SDS011;17546;42.674;23.284;2024-03-08T07:19:16;9.75;;;5.90;;
30818;SDS011;17546;42.674;23.284;2024-03-08T07:21:42;10.50;;;5.80;;
30818;SDS011;17546;42.674;23.284;2024-03-08T07:24:12;10.25;;;5.80;;
30818;SDS011;17546;42.674;23.284;2024-03-08T07:27:06;12.15;;;5.60;;
30818;SDS011;17546;42.674;23.284;2024-03-08T07:29:32;9.50;;;5.80;;
30818;SDS011;17546;42.674;23.284;2024-03-08T07:31:59;19.17;;;5.93;;
30818;SDS011;17546;42.674;23.284;2024-03-08T07:34:44;9.98;;;5.85;;
30818;SDS011;17546;42.674;23.284;2024-03-08T07:37:09;14.38;;;6.78;;
30818;SDS011;17546;42.674;23.284;2024-03-08T07:39:36;12.57;;;6.22;;
30818;SDS011;17546;42.674;23.284;2024-03-08T07:42:03;13.75;;;6.53;;
30818;SDS011;17546;42.674;23.284;2024-03-08T07:44:29;14.82;;;7.20;;
30818;SDS011;17546;42.674;23.284;2024-03-08T07:46:56;11.77;;;6.25;;
30818;SDS011;17546;42.674;23.284;2024-03-08T07:49:21;14.93;;;6.07;;
30818;SDS011;17546;42.674;23.284;2024-03-08T07:51:47;16.70;;;6.35;;
30818;SDS011;17546;42.674;23.284;2024-03-08T07:54:14;10.38;;;6.20;;
30818;SDS011;17546;42.674;23.284;2024-03-08T07:56:39;12.82;;;6.25;;
30818;SDS011;17546;42.674;23.284;2024-03-08T07:59:05;15.73;;;8.85;;
30818;SDS011;17546;42.674;23.284;2024-03-08T08:01:33;18.20;;;8.25;;
30818;SDS011;17546;42.674;23.284;2024-03-08T08:03:58;14.10;;;7.93;;
30818;SDS011;17546;42.674;23.284;2024-03-08T08:06:26;18.10;;;8.50;;
30818;SDS011;17546;42.674;23.284;2024-03-08T08:08:52;14.68;;;8.20;;
30818;SDS011;17546;42.674;23.284;2024-03-08T08:11:17;13.15;;;7.72;;
30818;SDS011;17546;42.674;23.284;2024-03-08T08:13:43;19.17;;;7.25;;
30818;SDS011;17546;42.674;23.284;2024-03-08T08:16:08;12.52;;;6.65;;
30818;SDS011;17546;42.674;23.284;2024-03-08T08:18:35;9.75;;;6.13;;
30818;SDS011;17546;42.674;23.284;2024-03-08T08:21:01;12.90;;;7.18;;
30818;SDS011;17546;42.674;23.284;2024-03-08T08:23:27;15.90;;;8.63;;
30818;SDS011;17546;42.674;23.284;2024-03-08T08:25:53;16.23;;;10.00;;
30818;SDS011;17546;42.674;23.284;2024-03-08T08:28:19;18.52;;;9.82;;
30818;SDS011;17546;42.674;23.284;2024-03-08T08:30:45;15.70;;;9.43;;
30818;SDS011;17546;42.674;23.284;2024-03-08T08:33:11;16.23;;;9.10;;
30818;SDS011;17546;42.674;23.284;2024-03-08T08:35:37;16.77;;;9.77;;
30818;SDS011;17546;42.674;23.284;2024-03-08T08:38:06;15.02;;;9.43;;
30818;SDS011;17546;42.674;23.284;2024-03-08T08:40:34;15.00;;;9.23;;
30818;SDS011;17546;42.674;23.284;2024-03-08T08:43:01;15.93;;;9.52;;
30818;SDS011;17546;42.674;23.284;2024-03-08T08:45:30;21.73;;;8.98;;
30818;SDS011;17546;42.674;23.284;2024-03-08T08:47:56;18.50;;;9.82;;
30818;SDS011;17546;42.674;23.284;2024-03-08T08:50:21;20.52;;;11.05;;
30818;SDS011;17546;42.674;23.284;2024-03-08T08:52:51;17.05;;;9.70;;
30818;SDS011;17546;42.674;23.284;2024-03-08T08:55:17;15.82;;;8.68;;
30818;SDS011;17546;42.674;23.284;2024-03-08T08:57:46;18.42;;;8.48;;
30818;SDS011;17546;42.674;23.284;2024-03-08T09:00:12;13.95;;;7.68;;
30818;SDS011;17546;42.674;23.284;2024-03-08T09:02:40;12.23;;;7.15;;
30818;SDS011;17546;42.674;23.284;2024-03-08T09:05:06;11.60;;;6.03;;
30818;SDS011;17546;42.674;23.284;2024-03-08T09:07:35;18.17;;;7.00;;
30818;SDS011;17546;42.674;23.284;2024-03-08T09:10:00;19.25;;;6.75;;
30818;SDS011;17546;42.674;23.284;2024-03-08T09:12:26;9.13;;;4.95;;
30818;SDS011;17546;42.674;23.284;2024-03-08T09:14:51;12.02;;;6.20;;
30818;SDS011;17546;42.674;23.284;2024-03-08T09:17:17;10.25;;;5.32;;
30818;SDS011;17546;42.674;23.284;2024-03-08T09:19:46;10.73;;;5.50;;
30818;SDS011;17546;42.674;23.284;2024-03-08T09:22:12;8.20;;;4.53;;
30818;SDS011;17546;42.674;23.284;2024-03-08T09:24:38;15.50;;;4.70;;
30818;SDS011;17546;42.674;23.284;2024-03-08T09:27:04;9.75;;;4.50;;
30818;SDS011;17546;42.674;23.284;2024-03-08T09:29:29;16.90;;;6.40;;
30818;SDS011;17546;42.674;23.284;2024-03-08T09:31:55;9.02;;;4.90;;
30818;SDS011;17546;42.674;23.284;2024-03-08T09:34:21;12.20;;;4.75;;
30818;SDS011;17546;42.674;23.284;2024-03-08T09:36:46;9.55;;;4.80;;
30818;SDS011;17546;42.674;23.284;2024-03-08T09:39:11;14.75;;;5.38;;
30818;SDS011;17546;42.674;23.284;2024-03-08T09:41:42;9.35;;;4.32;;
30818;SDS011;17546;42.674;23.284;2024-03-08T09:44:09;12.23;;;5.10;;
30818;SDS011;17546;42.674;23.284;2024-03-08T09:46:35;11.73;;;4.63;;
30818;SDS011;17546;42.674;23.284;2024-03-08T09:49:00;9.45;;;4.55;;
30818;SDS011;17546;42.674;23.284;2024-03-08T09:51:30;10.70;;;5.07;;
30818;SDS011;17546;42.674;23.284;2024-03-08T09:54:00;8.82;;;4.68;;
30818;SDS011;17546;42.674;23.284;2024-03-08T09:56:29;14.45;;;5.25;;
30818;SDS011;17546;42.674;23.284;2024-03-08T09:58:58;11.82;;;5.93;;
30818;SDS011;17546;42.674;23.284;2024-03-08T10:01:39;12.13;;;5.50;;
30818;SDS011;17546;42.674;23.284;2024-03-08T10:04:04;14.15;;;5.85;;
30818;SDS011;17546;42.674;23.284;2024-03-08T10:06:30;14.52;;;7.63;;
30818;SDS011;17546;42.674;23.284;2024-03-08T10:08:56;11.43;;;5.40;;
30818;SDS011;17546;42.674;23.284;2024-03-08T10:11:22;7.90;;;4.10;;
30818;SDS011;17546;42.674;23.284;2024-03-08T10:13:49;9.30;;;3.70;;
30818;SDS011;17546;42.674;23.284;2024-03-08T10:16:15;11.13;;;3.47;;
30818;SDS011;17546;42.674;23.284;2024-03-08T10:18:42;6.30;;;3.60;;
30818;SDS011;17546;42.674;23.284;2024-03-08T10:21:08;7.78;;;3.70;;
30818;SDS011;17546;42.674;23.284;2024-03-08T10:23:40;6.60;;;3.53;;
30818;SDS011;17546;42.674;23.284;2024-03-08T10:26:17;8.65;;;3.80;;
30818;SDS011;17546;42.674;23.284;2024-03-08T10:28:45;5.75;;;3.33;;
30818;SDS011;17546;42.674;23.284;2024-03-08T10:31:15;8.73;;;4.43;;
30818;SDS011;17546;42.674;23.284;2024-03-08T10:33:41;5.28;;;3.15;;
30818;SDS011;17546;42.674;23.284;2024-03-08T10:36:07;11.70;;;3.30;;
30818;SDS011;17546;42.674;23.284;2024-03-08T10:38:37;5.82;;;3.00;;
30818;SDS011;17546;42.674;23.284;2024-03-08T10:41:07;4.40;;;3.00;;
30818;SDS011;17546;42.674;23.284;2024-03-08T10:49:05;7.97;;;2.75;;
30818;SDS011;17546;42.674;23.284;2024-03-08T10:51:33;4.97;;;2.58;;
30818;SDS011;17546;42.674;23.284;2024-03-08T10:54:00;5.38;;;2.83;;
30818;SDS011;17546;42.674;23.284;2024-03-08T10:56:28;7.28;;;3.17;;
30818;SDS011;17546;42.674;23.284;2024-03-08T10:58:54;13.27;;;3.42;;
30818;SDS011;17546;42.674;23.284;2024-03-08T11:01:20;4.72;;;2.10;;
30818;SDS011;17546;42.674;23.284;2024-03-08T11:03:47;3.67;;;2.13;;
30818;SDS011;17546;42.674;23.284;2024-03-08T11:06:22;4.85;;;2.80;;
30818;SDS011;17546;42.674;23.284;2024-03-08T11:08:55;9.02;;;2.70;;
30818;SDS011;17546;42.674;23.284;2024-03-08T11:11:24;3.33;;;2.25;;
30818;SDS011;17546;42.674;23.284;2024-03-08T11:13:56;6.32;;;2.75;;
30818;SDS011;17546;42.674;23.284;2024-03-08T11:16:36;7.85;;;2.47;;
30818;SDS011;17546;42.674;23.284;2024-03-08T11:21:35;5.82;;;2.65;;
30818;SDS011;17546;42.674;23.284;2024-03-08T11:24:11;3.15;;;2.40;;
30818;SDS011;17546;42.674;23.284;2024-03-08T11:26:38;6.45;;;2.30;;
30818;SDS011;17546;42.674;23.284;2024-03-08T11:32:19;8.20;;;2.60;;
30818;SDS011;17546;42.674;23.284;2024-03-08T11:34:47;7.18;;;2.80;;
30818;SDS011;17546;42.674;23.284;2024-03-08T11:37:19;5.28;;;2.60;;
30818;SDS011;17546;42.674;23.284;2024-03-08T11:39:49;7.25;;;2.53;;
30818;SDS011;17546;42.674;23.284;2024-03-08T11:42:15;4.78;;;2.55;;
30818;SDS011;17546;42.674;23.284;2024-03-08T11:44:47;5.43;;;2.63;;
30818;SDS011;17546;42.674;23.284;2024-03-08T11:47:15;5.55;;;2.58;;
30818;SDS011;17546;42.674;23.284;2024-03-08T11:49:41;4.57;;;2.70;;
30818;SDS011;17546;42.674;23.284;2024-03-08T11:52:12;4.00;;;2.78;;
30818;SDS011;17546;42.674;23.284;2024-03-08T11:54:39;5.72;;;2.33;;
30818;SDS011;17546;42.674;23.284;2024-03-08T11:57:05;6.80;;;2.50;;
30818;SDS011;17546;42.674;23.284;2024-03-08T11:59:31;7.57;;;2.85;;
30818;SDS011;17546;42.674;23.284;2024-03-08T12:02:06;4.70;;;2.95;;
30818;SDS011;17546;42.674;23.284;2024-03-08T12:04:36;7.50;;;2.40;;
30818;SDS011;17546;42.674;23.284;2024-03-08T12:07:01;6.85;;;2.60;;
30818;SDS011;17546;42.674;23.284;2024-03-08T12:09:28;4.60;;;2.30;;
30818;SDS011;17546;42.674;23.284;2024-03-08T12:11:54;3.58;;;2.05;;
30818;SDS011;17546;42.674;23.284;2024-03-08T12:14:20;6.10;;;2.47;;
30818;SDS011;17546;42.674;23.284;2024-03-08T12:16:46;3.65;;;2.30;;
30818;SDS011;17546;42.674;23.284;2024-03-08T12:19:13;4.63;;;2.25;;
30818;SDS011;17546;42.674;23.284;2024-03-08T12:21:39;6.63;;;2.10;;
30818;SDS011;17546;42.674;23.284;2024-03-08T12:24:13;6.03;;;1.90;;
30818;SDS011;17546;42.674;23.284;2024-03-08T12:26:41;3.88;;;2.03;;
30818;SDS011;17546;42.674;23.284;2024-03-08T12:29:26;8.50;;;2.85;;
30818;SDS011;17546;42.674;23.284;2024-03-08T12:31:58;14.63;;;3.30;;
30818;SDS011;17546;42.674;23.284;2024-03-08T12:34:26;4.28;;;2.53;;
30818;SDS011;17546;42.674;23.284;2024-03-08T12:36:53;8.65;;;2.67;;
30818;SDS011;17546;42.674;23.284;2024-03-08T12:39:20;10.30;;;2.63;;
30818;SDS011;17546;42.674;23.284;2024-03-08T12:41:56;6.65;;;3.30;;
30818;SDS011;17546;42.674;23.284;2024-03-08T12:44:27;6.70;;;3.83;;
30818;SDS011;17546;42.674;23.284;2024-03-08T12:46:53;6.70;;;2.53;;
30818;SDS011;17546;42.674;23.284;2024-03-08T12:49:19;3.85;;;2.38;;
30818;SDS011;17546;42.674;23.284;2024-03-08T12:51:47;9.93;;;2.10;;
30818;SDS011;17546;42.674;23.284;2024-03-08T12:54:13;5.97;;;2.50;;
30818;SDS011;17546;42.674;23.284;2024-03-08T12:56:39;4.88;;;2.47;;
30818;SDS011;17546;42.674;23.284;2024-03-08T12:59:05;3.55;;;2.35;;
30818;SDS011;17546;42.674;23.284;2024-03-08T13:01:35;11.75;;;4.22;;
30818;SDS011;17546;42.674;23.284;2024-03-08T13:04:04;6.38;;;2.30;;
30818;SDS011;17546;42.674;23.284;2024-03-08T13:06:31;3.92;;;2.38;;
30818;SDS011;17546;42.674;23.284;2024-03-08T13:08:58;5.10;;;2.70;;
30818;SDS011;17546;42.674;23.284;2024-03-08T13:11:25;4.20;;;2.35;;
30818;SDS011;17546;42.674;23.284;2024-03-08T13:13:52;3.92;;;2.40;;
30818;SDS011;17546;42.674;23.284;2024-03-08T13:16:20;3.78;;;2.17;;
30818;SDS011;17546;42.674;23.284;2024-03-08T13:18:46;4.00;;;2.55;;
30818;SDS011;17546;42.674;23.284;2024-03-08T13:21:15;4.63;;;2.17;;
30818;SDS011;17546;42.674;23.284;2024-03-08T13:23:45;2.97;;;2.15;;
30818;SDS011;17546;42.674;23.284;2024-03-08T13:26:11;5.60;;;2.05;;
30818;SDS011;17546;42.674;23.284;2024-03-08T13:28:45;6.47;;;2.00;;
30818;SDS011;17546;42.674;23.284;2024-03-08T13:31:11;3.08;;;2.20;;
30818;SDS011;17546;42.674;23.284;2024-03-08T13:33:40;4.22;;;2.30;;
30818;SDS011;17546;42.674;23.284;2024-03-08T13:36:07;4.50;;;1.98;;
30818;SDS011;17546;42.674;23.284;2024-03-08T13:38:45;3.60;;;2.20;;
30818;SDS011;17546;42.674;23.284;2024-03-08T13:41:12;3.92;;;2.47;;
30818;SDS011;17546;42.674;23.284;2024-03-08T13:43:42;4.75;;;1.90;;
30818;SDS011;17546;42.674;23.284;2024-03-08T13:46:11;5.72;;;2.60;;
30818;SDS011;17546;42.674;23.284;2024-03-08T13:48:37;3.92;;;2.40;;
30818;SDS011;17546;42.674;23.284;2024-03-08T13:51:03;4.80;;;2.63;;
30818;SDS011;17546;42.674;23.284;2024-03-08T13:53:31;26.52;;;5.13;;
30818;SDS011;17546;42.674;23.284;2024-03-08T13:55:58;8.88;;;2.22;;
30818;SDS011;17546;42.674;23.284;2024-03-08T13:58:25;4.68;;;2.50;;
30818;SDS011;17546;42.674;23.284;2024-03-08T14:00:51;5.20;;;2.50;;
30818;SDS011;17546;42.674;23.284;2024-03-08T14:03:16;4.25;;;2.38;;
30818;SDS011;17546;42.674;23.284;2024-03-08T14:05:43;7.82;;;2.30;;
30818;SDS011;17546;42.674;23.284;2024-03-08T14:08:10;3.38;;;2.20;;
30818;SDS011;17546;42.674;23.284;2024-03-08T14:10:37;4.20;;;2.10;;
30818;SDS011;17546;42.674;23.284;2024-03-08T14:13:02;3.10;;;2.03;;
30818;SDS011;17546;42.674;23.284;2024-03-08T14:15:33;3.40;;;2.10;;
30818;SDS011;17546;42.674;23.284;2024-03-08T14:18:03;5.97;;;2.22;;
30818;SDS011;17546;42.674;23.284;2024-03-08T14:20:31;18.02;;;2.83;;
30818;SDS011;17546;42.674;23.284;2024-03-08T14:22:57;5.50;;;2.20;;
30818;SDS011;17546;42.674;23.284;2024-03-08T14:25:23;8.20;;;2.08;;
30818;SDS011;17546;42.674;23.284;2024-03-08T14:27:52;3.85;;;2.40;;
30818;SDS011;17546;42.674;23.284;2024-03-08T14:30:19;5.38;;;2.20;;
30818;SDS011;17546;42.674;23.284;2024-03-08T14:33:03;2.58;;;2.03;;
30818;SDS011;17546;42.674;23.284;2024-03-08T14:35:30;2.92;;;1.90;;
30818;SDS011;17546;42.674;23.284;2024-03-08T14:37:56;4.00;;;2.08;;
30818;SDS011;17546;42.674;23.284;2024-03-08T14:40:23;5.72;;;2.35;;
30818;SDS011;17546;42.674;23.284;2024-03-08T14:42:51;6.13;;;2.13;;
30818;SDS011;17546;42.674;23.284;2024-03-08T14:45:17;5.53;;;2.20;;